Time;durP1;ratioP1;P1;durP2;ratioP2;P2;SDS_P1;SDS_P2;PMS_P1;PMS_P2;Temp;Humidity;BMP_temperature;BMP_pressure;BME280_temperature;BME280_humidity;BME280_pressure;Samples;Min_cycle;Max_cycle;Signal;HPM_P1;HPM_P2
2023/04/09 00:00:02;;;;;;;66.65;37.30;;;9.40;99.90;;;;;;5032422;28;20052;-85
2023/04/09 00:02:28;;;;;;;69.72;40.30;;;9.40;99.90;;;;;;5036701;28;20045;-84
2023/04/09 00:04:54;;;;;;;73.63;39.08;;;9.40;99.90;;;;;;5030929;28;20059;-85
2023/04/09 00:07:22;;;;;;;69.68;39.75;;;9.40;99.90;;;;;;5028743;28;20040;-84
2023/04/09 00:09:48;;;;;;;64.70;37.05;;;9.30;99.90;;;;;;5030780;28;20331;-84
2023/04/09 00:12:16;;;;;;;71.85;38.40;;;9.30;99.90;;;;;;5036744;28;20033;-84
2023/04/09 00:14:41;;;;;;;64.00;36.55;;;9.40;99.90;;;;;;5034504;28;20455;-84
2023/04/09 00:17:10;;;;;;;65.75;36.10;;;9.40;99.90;;;;;;5015341;28;20044;-84
2023/04/09 00:19:36;;;;;;;65.85;37.65;;;9.30;99.90;;;;;;5041350;28;20048;-84
2023/04/09 00:22:01;;;;;;;60.03;33.83;;;9.30;99.90;;;;;;5024657;28;20049;-84
2023/04/09 00:24:27;;;;;;;60.28;34.33;;;9.30;99.90;;;;;;5027127;28;20120;-84
2023/04/09 00:26:56;;;;;;;53.03;31.17;;;9.30;99.90;;;;;;5036198;28;20046;-84
2023/04/09 00:29:21;;;;;;;53.08;31.63;;;9.30;99.90;;;;;;5036565;28;20112;-84
2023/04/09 00:31:47;;;;;;;56.13;31.83;;;9.30;99.90;;;;;;5026281;28;20692;-84
2023/04/09 00:34:15;;;;;;;55.85;30.05;;;9.20;99.90;;;;;;5037618;28;20345;-84
2023/04/09 00:36:41;;;;;;;51.88;29.77;;;9.20;99.90;;;;;;5040254;28;20068;-84
2023/04/09 00:39:07;;;;;;;47.00;28.73;;;9.20;99.90;;;;;;5044849;28;20079;-84
2023/04/09 00:41:32;;;;;;;48.90;28.65;;;9.20;99.90;;;;;;5044512;28;20094;-84
2023/04/09 00:43:58;;;;;;;42.92;26.55;;;9.20;99.90;;;;;;5041621;28;20029;-84
2023/04/09 00:46:24;;;;;;;39.95;23.00;;;9.20;99.90;;;;;;5037106;28;20051;-84
2023/04/09 00:48:50;;;;;;;42.97;23.77;;;9.20;99.90;;;;;;5023031;28;20515;-84
2023/04/09 00:51:15;;;;;;;38.47;23.02;;;9.10;99.90;;;;;;5037846;28;20049;-84
2023/04/09 00:53:42;;;;;;;35.92;21.55;;;9.10;99.90;;;;;;5034162;28;20037;-84
2023/04/09 00:56:10;;;;;;;40.70;22.80;;;9.10;99.90;;;;;;5020224;28;20041;-84
2023/04/09 00:58:36;;;;;;;39.30;23.08;;;9.10;99.90;;;;;;5034492;28;20121;-84
2023/04/09 01:01:02;;;;;;;39.17;23.48;;;9.10;99.90;;;;;;5027687;28;20057;-84
2023/04/09 01:03:28;;;;;;;36.33;21.48;;;9.10;99.90;;;;;;5036286;28;20045;-84
2023/04/09 01:06:11;;;;;;;38.38;22.55;;;9.10;99.90;;;;;;5018934;28;20060;-84
2023/04/09 01:09:05;;;;;;;40.53;23.83;;;9.10;99.90;;;;;;5040970;28;20060;-84
2023/04/09 01:12:04;;;;;;;41.47;23.05;;;9.10;99.90;;;;;;5041263;28;20051;-84
2023/04/09 01:14:54;;;;;;;38.88;22.95;;;9.00;99.90;;;;;;5035169;28;20400;-84
2023/04/09 01:17:33;;;;;;;37.13;22.38;;;9.00;99.90;;;;;;5041018;28;20077;-85
2023/04/09 01:20:05;;;;;;;36.17;20.83;;;9.20;99.90;;;;;;5039242;28;20052;-84
2023/04/09 01:22:48;;;;;;;40.15;22.45;;;8.90;99.90;;;;;;5041696;28;20120;-84
2023/04/09 01:25:34;;;;;;;40.03;23.52;;;9.00;99.90;;;;;;5037932;28;20182;-84
2023/04/09 01:28:26;;;;;;;39.00;23.80;;;9.00;99.90;;;;;;4996608;28;20091;-84
2023/04/09 01:30:59;;;;;;;41.75;23.20;;;8.90;99.90;;;;;;5035486;28;20076;-84
2023/04/09 01:33:27;;;;;;;38.90;21.30;;;9.00;99.90;;;;;;5023102;28;20052;-84
2023/04/09 01:35:53;;;;;;;37.92;22.67;;;8.90;99.90;;;;;;5029981;28;20045;-84
2023/04/09 01:38:21;;;;;;;39.13;23.15;;;8.90;99.90;;;;;;5018939;28;20055;-84
2023/04/09 01:40:49;;;;;;;41.40;23.67;;;8.90;99.90;;;;;;5037576;28;20044;-84
2023/04/09 01:43:15;;;;;;;40.90;24.33;;;8.90;99.90;;;;;;5041495;28;20033;-84
2023/04/09 01:45:44;;;;;;;40.65;24.00;;;8.90;99.90;;;;;;5043481;28;20095;-84
2023/04/09 01:48:12;;;;;;;41.65;23.92;;;9.00;99.90;;;;;;5033282;28;20045;-84
2023/04/09 01:50:38;;;;;;;41.22;24.08;;;9.00;99.90;;;;;;5031710;28;20092;-84
2023/04/09 01:53:05;;;;;;;36.50;21.52;;;8.90;99.90;;;;;;5042551;28;20041;-84
2023/04/09 01:55:31;;;;;;;43.47;24.48;;;8.90;99.90;;;;;;5034698;28;20041;-83
2023/04/09 01:57:57;;;;;;;38.70;23.45;;;9.10;99.90;;;;;;5026814;28;20053;-84
2023/04/09 02:00:25;;;;;;;46.38;25.23;;;8.90;99.90;;;;;;5041620;28;20734;-84
2023/04/09 02:03:02;;;;;;;40.20;24.35;;;8.90;99.90;;;;;;5038268;28;20056;-84
2023/04/09 02:05:32;;;;;;;41.40;23.85;;;8.90;99.90;;;;;;5045486;28;20037;-84
2023/04/09 02:08:02;;;;;;;39.45;24.33;;;8.80;99.90;;;;;;5039248;28;20129;-84
2023/04/09 02:10:30;;;;;;;38.70;23.27;;;8.80;99.90;;;;;;5037332;28;20087;-83
2023/04/09 02:12:58;;;;;;;40.05;23.42;;;8.80;99.90;;;;;;5033711;28;20041;-84
2023/04/09 02:15:27;;;;;;;41.83;22.90;;;8.80;99.90;;;;;;5039666;28;20057;-84
2023/04/09 02:17:53;;;;;;;39.35;23.48;;;8.80;99.90;;;;;;5041878;28;20181;-84
2023/04/09 02:20:19;;;;;;;34.70;21.63;;;8.80;99.90;;;;;;5040739;28;20053;-84
2023/04/09 02:22:47;;;;;;;36.90;21.90;;;8.80;99.90;;;;;;5032790;28;20057;-83
2023/04/09 02:25:14;;;;;;;38.78;23.33;;;8.90;99.90;;;;;;5035041;28;20602;-84
2023/04/09 02:27:40;;;;;;;37.15;21.45;;;8.80;99.90;;;;;;5036974;28;20149;-84
2023/04/09 02:30:06;;;;;;;39.17;24.38;;;8.80;99.90;;;;;;5040195;28;20115;-84
2023/04/09 02:32:40;;;;;;;38.20;23.65;;;8.80;99.90;;;;;;5042573;28;20048;-84
2023/04/09 02:35:09;;;;;;;43.42;24.13;;;8.80;99.90;;;;;;5031610;28;20370;-84
2023/04/09 02:37:35;;;;;;;39.00;24.17;;;8.80;99.90;;;;;;5041267;28;20041;-83
2023/04/09 02:40:01;;;;;;;39.28;23.98;;;8.80;99.90;;;;;;5033768;28;20638;-84
2023/04/09 02:42:26;;;;;;;38.05;22.67;;;8.80;99.90;;;;;;5038962;28;20044;-84
2023/04/09 02:44:52;;;;;;;40.10;22.95;;;8.80;99.90;;;;;;5038025;28;20045;-84
2023/04/09 02:47:18;;;;;;;38.72;24.35;;;8.80;99.90;;;;;;5037721;28;20264;-83
2023/04/09 02:49:45;;;;;;;39.30;23.80;;;8.80;99.90;;;;;;5035779;28;20809;-84
2023/04/09 02:52:11;;;;;;;43.85;24.52;;;8.80;99.90;;;;;;5013672;28;20557;-84
2023/04/09 02:54:37;;;;;;;39.10;23.50;;;8.80;99.90;;;;;;5034526;28;20360;-83
2023/04/09 02:57:05;;;;;;;39.85;23.60;;;8.80;99.90;;;;;;5032389;28;20049;-83
2023/04/09 02:59:32;;;;;;;37.78;22.50;;;8.70;99.90;;;;;;5035661;28;20040;-84
2023/04/09 03:02:01;;;;;;;39.95;24.85;;;8.70;99.90;;;;;;5040322;28;20076;-83
2023/04/09 03:04:26;;;;;;;39.60;23.63;;;8.70;99.90;;;;;;5036276;28;20052;-83
2023/04/09 03:06:52;;;;;;;41.63;23.40;;;8.70;99.90;;;;;;5041278;28;20045;-83
2023/04/09 03:09:18;;;;;;;37.65;23.88;;;8.70;99.90;;;;;;5038671;28;20041;-83
2023/04/09 03:11:43;;;;;;;38.30;24.05;;;8.70;99.90;;;;;;5028456;28;20455;-83
2023/04/09 03:14:09;;;;;;;40.65;22.52;;;8.70;99.90;;;;;;5033694;28;20041;-84
2023/04/09 03:16:35;;;;;;;40.35;23.80;;;8.70;99.90;;;;;;5041300;28;20522;-83
2023/04/09 03:19:01;;;;;;;41.75;25.05;;;8.80;99.90;;;;;;5043192;28;20045;-84
2023/04/09 03:21:26;;;;;;;39.50;22.45;;;8.70;99.90;;;;;;5037910;28;20155;-84
2023/04/09 03:23:52;;;;;;;39.05;22.80;;;8.70;99.90;;;;;;5031055;28;20077;-83
2023/04/09 03:26:19;;;;;;;40.03;24.27;;;8.70;99.90;;;;;;5042224;28;20055;-83
2023/04/09 03:28:45;;;;;;;43.95;26.00;;;8.70;99.90;;;;;;5031692;28;20091;-83
2023/04/09 03:31:10;;;;;;;37.15;21.83;;;8.60;99.90;;;;;;5036351;28;20057;-83
2023/04/09 03:33:36;;;;;;;41.08;24.27;;;8.60;99.90;;;;;;5030935;28;20543;-83
2023/04/09 03:36:02;;;;;;;40.53;24.45;;;8.60;99.90;;;;;;5035793;28;20562;-83
2023/04/09 03:38:27;;;;;;;39.67;24.88;;;8.60;99.90;;;;;;5033845;28;20041;-83
2023/04/09 03:40:54;;;;;;;44.53;24.83;;;8.60;99.90;;;;;;5034863;28;20597;-83
2023/04/09 03:43:20;;;;;;;45.35;25.17;;;8.60;99.90;;;;;;5040541;28;20106;-83
2023/04/09 03:45:46;;;;;;;44.45;25.77;;;8.60;99.90;;;;;;5037257;28;20163;-83
2023/04/09 03:48:14;;;;;;;48.38;27.00;;;8.70;99.90;;;;;;5042415;28;20651;-83
2023/04/09 03:50:40;;;;;;;43.67;26.08;;;8.60;99.90;;;;;;5039362;28;20044;-83
2023/04/09 03:53:07;;;;;;;40.33;22.48;;;8.60;99.90;;;;;;5022976;28;20040;-83
2023/04/09 03:55:36;;;;;;;44.30;25.20;;;8.60;99.90;;;;;;5037301;28;20374;-83
2023/04/09 03:58:01;;;;;;;38.20;21.73;;;8.60;99.90;;;;;;5032456;28;20052;-83
2023/04/09 04:00:27;;;;;;;37.53;23.13;;;8.60;99.90;;;;;;5039637;28;20436;-83
2023/04/09 04:02:53;;;;;;;40.95;23.25;;;8.60;99.90;;;;;;5040910;28;20052;-83
2023/04/09 04:05:22;;;;;;;41.05;25.10;;;8.80;99.90;;;;;;5040694;28;20045;-84
2023/04/09 04:07:48;;;;;;;46.70;25.63;;;8.60;99.90;;;;;;5015884;28;20094;-83
2023/04/09 04:10:14;;;;;;;36.67;22.73;;;8.60;99.90;;;;;;5041582;28;20040;-83
2023/04/09 04:12:39;;;;;;;38.50;23.05;;;8.50;99.90;;;;;;5046003;28;20124;-83
2023/04/09 04:15:06;;;;;;;42.00;25.50;;;8.70;99.90;;;;;;5044177;28;20514;-83
2023/04/09 04:17:31;;;;;;;35.03;20.52;;;8.50;99.90;;;;;;5035517;28;20115;-83
2023/04/09 04:19:57;;;;;;;46.40;26.50;;;8.50;99.90;;;;;;5036327;28;20488;-83
2023/04/09 04:22:23;;;;;;;44.50;25.38;;;8.40;99.90;;;;;;5029469;28;20037;-83
2023/04/09 04:24:48;;;;;;;39.25;21.20;;;8.40;99.90;;;;;;5030322;28;20045;-83
2023/04/09 04:27:14;;;;;;;38.80;23.88;;;8.40;99.90;;;;;;5040662;28;20041;-83
2023/04/09 04:29:40;;;;;;;45.55;25.15;;;8.40;99.90;;;;;;5045139;28;20075;-82
2023/04/09 04:32:05;;;;;;;41.15;22.52;;;8.40;99.90;;;;;;5039976;28;20092;-83
2023/04/09 04:34:31;;;;;;;42.88;25.25;;;8.40;99.90;;;;;;5040149;28;20049;-83
2023/04/09 04:36:59;;;;;;;44.00;26.13;;;8.40;99.90;;;;;;5039726;28;20602;-82
2023/04/09 04:39:25;;;;;;;43.63;24.83;;;8.40;99.90;;;;;;5037755;28;20048;-82
2023/04/09 04:41:53;;;;;;;44.38;24.98;;;8.40;99.90;;;;;;5036290;28;20037;-82
2023/04/09 04:44:18;;;;;;;45.05;24.35;;;8.40;99.90;;;;;;5041311;28;20071;-82
2023/04/09 04:46:44;;;;;;;44.55;24.50;;;8.40;99.90;;;;;;5037910;28;20057;-82
2023/04/09 04:49:13;;;;;;;40.97;24.25;;;8.40;99.90;;;;;;5034331;28;20744;-83
2023/04/09 04:51:38;;;;;;;42.47;24.23;;;8.40;99.90;;;;;;5044932;28;20032;-82
2023/04/09 04:54:04;;;;;;;49.13;26.67;;;8.40;99.90;;;;;;5038703;28;20039;-82
2023/04/09 04:56:30;;;;;;;43.45;25.58;;;8.40;99.90;;;;;;5038117;28;20037;-82
2023/04/09 04:58:55;;;;;;;44.30;26.58;;;8.40;99.90;;;;;;5018151;28;20399;-82
2023/04/09 05:01:21;;;;;;;48.30;26.35;;;8.40;99.90;;;;;;5040671;28;20641;-82
2023/04/09 05:03:46;;;;;;;38.15;22.90;;;8.40;99.90;;;;;;5038727;28;20073;-83
2023/04/09 05:06:12;;;;;;;40.25;23.77;;;8.40;99.90;;;;;;5032795;28;20133;-82
2023/04/09 05:08:38;;;;;;;46.88;26.98;;;8.40;99.90;;;;;;5039107;28;20385;-82
2023/04/09 05:11:03;;;;;;;46.45;26.75;;;8.40;99.90;;;;;;5040903;28;20047;-82
2023/04/09 05:13:29;;;;;;;42.30;22.67;;;8.40;99.90;;;;;;5037916;28;20522;-82
2023/04/09 05:15:57;;;;;;;50.42;26.55;;;8.40;99.90;;;;;;5038025;28;20112;-83
2023/04/09 05:18:22;;;;;;;41.95;23.85;;;8.40;99.90;;;;;;5034342;28;20063;-83
2023/04/09 05:20:48;;;;;;;42.00;25.20;;;8.40;99.90;;;;;;5036776;28;20491;-82
2023/04/09 05:23:13;;;;;;;46.22;26.98;;;8.40;99.90;;;;;;5037590;28;20037;-83
2023/04/09 05:25:39;;;;;;;45.25;26.42;;;8.40;99.90;;;;;;5036150;28;20048;-82
2023/04/09 05:28:05;;;;;;;41.60;23.73;;;8.40;99.90;;;;;;5031770;28;20546;-85
2023/04/09 05:30:34;;;;;;;43.85;25.02;;;8.40;99.90;;;;;;5032857;28;20056;-82
2023/04/09 05:32:59;;;;;;;47.85;27.05;;;9.10;99.90;;;;;;5029184;28;20133;-82
2023/04/09 05:35:25;;;;;;;41.60;24.00;;;8.40;99.90;;;;;;5032612;28;20041;-82
2023/04/09 05:37:51;;;;;;;39.72;22.90;;;8.40;99.90;;;;;;5037863;28;20064;-82
2023/04/09 05:40:17;;;;;;;39.33;24.23;;;8.40;99.90;;;;;;5025151;28;20041;-82
2023/04/09 05:42:43;;;;;;;44.63;25.08;;;8.40;99.90;;;;;;5035592;28;20045;-82
2023/04/09 05:45:09;;;;;;;46.88;25.13;;;8.60;99.90;;;;;;5034631;28;20053;-82
2023/04/09 05:47:35;;;;;;;44.45;26.13;;;8.40;99.90;;;;;;5016866;28;20571;-82
2023/04/09 05:50:07;;;;;;;48.83;26.00;;;8.40;99.90;;;;;;5010731;28;20124;-82
2023/04/09 05:52:33;;;;;;;41.17;23.55;;;8.40;99.90;;;;;;5033512;28;20042;-81
2023/04/09 05:54:59;;;;;;;40.45;24.27;;;8.40;99.90;;;;;;5030532;28;20483;-81
2023/04/09 05:57:24;;;;;;;40.47;23.40;;;8.40;99.90;;;;;;5031062;28;20045;-82
2023/04/09 05:59:50;;;;;;;42.95;23.90;;;8.40;99.90;;;;;;5028422;28;20052;-82
2023/04/09 06:02:16;;;;;;;38.55;23.30;;;8.40;99.90;;;;;;5023353;28;20061;-81
2023/04/09 06:04:41;;;;;;;37.15;22.08;;;8.40;99.90;;;;;;5026180;28;20081;-81
2023/04/09 06:07:07;;;;;;;36.83;20.75;;;8.40;99.90;;;;;;5026164;28;20542;-81
2023/04/09 06:09:33;;;;;;;36.33;21.77;;;8.40;99.90;;;;;;5031667;28;20300;-81
2023/04/09 06:11:58;;;;;;;35.42;20.45;;;8.40;99.90;;;;;;5024518;28;20049;-82
2023/04/09 06:14:24;;;;;;;39.72;21.95;;;8.40;99.90;;;;;;5009295;28;20056;-82
2023/04/09 06:16:50;;;;;;;36.50;20.73;;;8.40;99.90;;;;;;5024896;28;20061;-81
2023/04/09 06:19:15;;;;;;;33.97;20.23;;;8.40;99.90;;;;;;5022463;28;20127;-81
2023/04/09 06:21:41;;;;;;;34.67;20.08;;;8.50;99.90;;;;;;5025143;28;20048;-81
2023/04/09 06:24:07;;;;;;;33.25;20.13;;;8.40;99.90;;;;;;5031793;28;20037;-81
2023/04/09 06:26:33;;;;;;;33.00;20.05;;;8.50;99.90;;;;;;5022344;28;20041;-82
2023/04/09 06:28:58;;;;;;;38.40;22.42;;;8.50;99.90;;;;;;5027766;28;20609;-80
2023/04/09 06:31:24;;;;;;;36.72;20.40;;;8.50;99.90;;;;;;5023969;28;20518;-81
2023/04/09 06:33:50;;;;;;;34.75;21.52;;;8.50;99.90;;;;;;5032068;28;20045;-80
2023/04/09 06:36:16;;;;;;;44.92;24.35;;;8.50;99.90;;;;;;5022783;28;20049;-81
2023/04/09 06:38:42;;;;;;;44.65;25.00;;;8.50;99.90;;;;;;5030609;28;20037;-80
2023/04/09 06:41:07;;;;;;;45.25;27.38;;;8.50;99.90;;;;;;5029524;28;20045;-82
2023/04/09 06:43:34;;;;;;;49.28;29.40;;;8.60;99.90;;;;;;5025924;28;20037;-82
2023/04/09 06:46:00;;;;;;;47.47;29.15;;;8.60;99.90;;;;;;5010892;28;20053;-83
2023/04/09 06:48:26;;;;;;;53.05;29.25;;;8.60;99.90;;;;;;5026650;28;20044;-87
2023/04/09 06:50:51;;;;;;;50.08;29.08;;;8.70;99.90;;;;;;5023504;28;20042;-81
2023/04/09 06:53:17;;;;;;;44.15;25.52;;;8.60;99.90;;;;;;5025034;28;20045;-82
2023/04/09 06:55:43;;;;;;;41.83;25.13;;;8.70;99.90;;;;;;5031229;28;20041;-80
2023/04/09 06:58:09;;;;;;;44.95;26.15;;;8.80;99.90;;;;;;5013460;28;20456;-81
2023/04/09 07:00:35;;;;;;;44.53;24.52;;;8.80;99.90;;;;;;5024640;28;20511;-82
2023/04/09 07:03:01;;;;;;;44.90;25.95;;;8.80;99.90;;;;;;5028797;28;20157;-84
2023/04/09 07:05:26;;;;;;;43.95;24.48;;;8.80;99.90;;;;;;5024949;28;20048;-80
2023/04/09 07:07:55;;;;;;;46.25;26.27;;;8.90;99.90;;;;;;5031627;28;20495;-81
2023/04/09 07:10:23;;;;;;;48.38;25.48;;;9.00;99.90;;;;;;5023438;28;20585;-81
2023/04/09 07:12:49;;;;;;;45.22;26.38;;;9.10;99.90;;;;;;5030482;28;20462;-81
2023/04/09 07:15:15;;;;;;;41.70;25.00;;;9.10;99.90;;;;;;5040576;28;20045;-82
2023/04/09 07:17:40;;;;;;;43.75;24.98;;;9.20;99.90;;;;;;5027265;28;20096;-83
2023/04/09 07:20:06;;;;;;;44.22;25.58;;;9.20;99.90;;;;;;5034610;28;20072;-82
2023/04/09 07:22:32;;;;;;;46.10;25.88;;;9.20;99.90;;;;;;5031180;28;20036;-80
2023/04/09 07:24:58;;;;;;;46.33;26.52;;;9.30;99.90;;;;;;5031564;28;20037;-81
2023/04/09 07:27:26;;;;;;;41.55;24.13;;;9.30;99.90;;;;;;5033007;28;20154;-80
2023/04/09 07:29:56;;;;;;;41.90;25.13;;;9.30;99.90;;;;;;5022859;28;20053;-80
2023/04/09 07:32:23;;;;;;;42.10;25.23;;;9.40;99.90;;;;;;5032977;28;20045;-81
2023/04/09 07:34:56;;;;;;;45.63;25.85;;;9.40;99.90;;;;;;5029891;28;20159;-83
2023/04/09 07:37:28;;;;;;;47.80;26.40;;;9.40;99.90;;;;;;5029826;28;20451;-79
2023/04/09 07:39:58;;;;;;;46.90;26.50;;;9.40;99.90;;;;;;5017450;28;20041;-81
2023/04/09 07:42:29;;;;;;;41.92;24.92;;;9.50;99.90;;;;;;5001821;28;20045;-81
2023/04/09 07:44:56;;;;;;;44.05;24.77;;;9.60;99.90;;;;;;5024513;28;20559;-80
2023/04/09 07:47:22;;;;;;;41.17;24.70;;;9.60;99.90;;;;;;5033375;28;20047;-81
2023/04/09 07:49:48;;;;;;;44.53;26.17;;;9.60;99.90;;;;;;5033919;28;20116;-81
2023/04/09 07:52:14;;;;;;;43.20;25.25;;;9.70;99.90;;;;;;5029835;28;20869;-80
2023/04/09 07:54:40;;;;;;;40.75;24.88;;;9.80;99.90;;;;;;5035323;28;20497;-81
2023/04/09 07:57:08;;;;;;;45.13;25.45;;;9.80;99.90;;;;;;5025342;28;20042;-81
2023/04/09 07:59:35;;;;;;;45.67;27.05;;;9.80;99.90;;;;;;5022929;28;20041;-81
2023/04/09 08:02:01;;;;;;;43.17;25.13;;;9.80;99.90;;;;;;5018838;28;20526;-81
2023/04/09 08:04:26;;;;;;;43.10;26.23;;;9.80;99.90;;;;;;5020556;28;20045;-81
2023/04/09 08:06:58;;;;;;;44.40;25.30;;;9.90;99.90;;;;;;5028691;28;20052;-82
2023/04/09 08:09:25;;;;;;;42.38;25.63;;;10.00;99.90;;;;;;5019157;28;20421;-81
2023/04/09 08:11:52;;;;;;;45.63;27.45;;;9.90;99.90;;;;;;5028144;28;20091;-80
2023/04/09 08:14:18;;;;;;;44.00;25.67;;;10.00;99.90;;;;;;5022921;28;20362;-81
2023/04/09 08:16:46;;;;;;;45.22;26.98;;;10.00;99.90;;;;;;5021242;28;20040;-80
2023/04/09 08:19:13;;;;;;;42.38;26.02;;;10.10;99.90;;;;;;5031072;28;20045;-79
2023/04/09 08:21:43;;;;;;;42.85;25.90;;;10.20;99.90;;;;;;5034234;28;20053;-80
2023/04/09 08:24:10;;;;;;;39.83;24.70;;;10.30;99.90;;;;;;5020284;28;20037;-79
2023/04/09 08:26:37;;;;;;;42.97;26.27;;;10.30;99.90;;;;;;5023065;28;20057;-81
2023/04/09 08:29:04;;;;;;;38.42;24.65;;;10.30;99.90;;;;;;5028987;28;20093;-83
2023/04/09 08:31:31;;;;;;;42.78;24.88;;;10.30;99.90;;;;;;5029165;28;20053;-84
2023/04/09 08:33:57;;;;;;;41.30;25.77;;;10.40;99.90;;;;;;5021711;28;20064;-81
2023/04/09 08:36:23;;;;;;;41.63;25.50;;;10.40;99.90;;;;;;5014910;28;20053;-81
2023/04/09 08:38:49;;;;;;;42.08;25.40;;;10.50;99.90;;;;;;5027183;28;20041;-84
2023/04/09 08:41:25;;;;;;;43.45;25.58;;;10.60;99.90;;;;;;5028141;28;20620;-80
2023/04/09 08:43:52;;;;;;;38.05;24.63;;;11.00;99.90;;;;;;5020523;28;20050;-81
2023/04/09 08:46:18;;;;;;;38.55;24.13;;;10.80;99.90;;;;;;5024837;28;20060;-81
2023/04/09 08:48:45;;;;;;;37.83;24.15;;;10.80;99.90;;;;;;5021238;28;20093;-82
2023/04/09 08:51:13;;;;;;;37.85;23.20;;;10.80;99.90;;;;;;5027312;28;20468;-81
2023/04/09 08:53:41;;;;;;;38.35;23.80;;;10.80;99.90;;;;;;5017961;28;20071;-80
2023/04/09 08:56:06;;;;;;;40.67;24.83;;;10.90;99.90;;;;;;5031899;28;20037;-79
2023/04/09 08:58:32;;;;;;;39.85;25.30;;;10.90;99.90;;;;;;5036352;28;20033;-80
2023/04/09 09:00:58;;;;;;;39.15;24.95;;;10.90;99.90;;;;;;5032113;28;20052;-84
2023/04/09 09:03:24;;;;;;;38.25;24.35;;;10.90;99.90;;;;;;5028655;28;20048;-82
2023/04/09 09:05:49;;;;;;;38.30;23.77;;;11.00;99.90;;;;;;5041790;28;20053;-84
2023/04/09 09:08:23;;;;;;;39.38;25.13;;;11.10;99.90;;;;;;5026207;28;20119;-82
2023/04/09 09:10:49;;;;;;;43.03;25.83;;;11.10;99.90;;;;;;5023875;28;20075;-83
2023/04/09 09:13:22;;;;;;;40.40;24.52;;;11.10;99.90;;;;;;5023291;28;20036;-81
2023/04/09 09:15:53;;;;;;;38.83;25.67;;;11.30;99.90;;;;;;5013456;28;20037;-81
2023/04/09 09:18:20;;;;;;;39.50;25.23;;;11.40;99.90;;;;;;5017901;28;20148;-81
2023/04/09 09:20:46;;;;;;;39.38;24.65;;;11.50;99.90;;;;;;5002209;28;20055;-83
2023/04/09 09:23:12;;;;;;;39.08;24.70;;;11.60;99.90;;;;;;5033918;28;20049;-82
2023/04/09 09:25:41;;;;;;;37.00;22.88;;;11.70;99.90;;;;;;5023277;28;20037;-81
2023/04/09 09:28:09;;;;;;;39.42;24.95;;;11.80;99.90;;;;;;5020507;28;20045;-82
2023/04/09 09:30:37;;;;;;;40.03;25.58;;;11.90;99.90;;;;;;5023998;28;20045;-82
2023/04/09 09:33:06;;;;;;;40.45;24.30;;;11.90;99.90;;;;;;5022600;28;20045;-82
2023/04/09 09:35:49;;;;;;;39.15;25.33;;;12.00;99.90;;;;;;5025203;28;20049;-82
2023/04/09 09:38:15;;;;;;;40.50;25.75;;;12.00;99.90;;;;;;5021158;28;20401;-82
2023/04/09 09:40:42;;;;;;;38.47;25.80;;;12.10;99.90;;;;;;5026469;28;20037;-82
2023/04/09 09:43:07;;;;;;;37.50;25.42;;;12.20;99.90;;;;;;5023238;28;20072;-81
2023/04/09 09:45:37;;;;;;;37.05;24.70;;;12.20;99.90;;;;;;5025544;28;20091;-82
2023/04/09 09:48:04;;;;;;;37.25;23.83;;;12.20;99.90;;;;;;5032273;28;20687;-81
2023/04/09 09:50:33;;;;;;;36.38;23.73;;;12.30;99.90;;;;;;5025920;28;20455;-81
2023/04/09 09:53:03;;;;;;;35.13;22.65;;;12.40;99.90;;;;;;5012436;28;20485;-81
2023/04/09 09:55:37;;;;;;;33.88;23.02;;;12.50;99.90;;;;;;5023682;28;20131;-81
2023/04/09 09:58:23;;;;;;;38.13;25.55;;;12.60;99.90;;;;;;5030069;28;20116;-79
2023/04/09 10:00:50;;;;;;;36.95;23.10;;;12.70;99.90;;;;;;5020186;28;20037;-81
2023/04/09 10:03:24;;;;;;;36.88;23.17;;;12.80;99.90;;;;;;5020594;28;20562;-81
2023/04/09 10:05:52;;;;;;;38.97;26.37;;;12.90;99.90;;;;;;5021473;28;20397;-81
2023/04/09 10:08:19;;;;;;;39.15;24.83;;;13.00;99.90;;;;;;5019914;28;20045;-82
2023/04/09 10:10:47;;;;;;;37.40;24.58;;;13.30;99.90;;;;;;5018930;28;20041;-81
2023/04/09 10:13:25;;;;;;;37.63;24.67;;;13.10;99.90;;;;;;5025463;28;20051;-82
2023/04/09 10:15:52;;;;;;;36.88;25.23;;;13.10;99.90;;;;;;5022129;28;20144;-81
2023/04/09 10:18:18;;;;;;;38.08;25.48;;;13.10;99.90;;;;;;5005628;28;20183;-81
2023/04/09 10:21:00;;;;;;;36.22;23.77;;;13.20;99.90;;;;;;5035445;28;20090;-81
2023/04/09 10:23:41;;;;;;;34.90;23.60;;;13.10;99.90;;;;;;5019731;28;20044;-81
2023/04/09 10:26:10;;;;;;;36.00;24.55;;;13.10;99.90;;;;;;5022707;28;20037;-81
2023/04/09 10:28:40;;;;;;;36.30;23.33;;;13.10;99.90;;;;;;5025714;28;20127;-81
2023/04/09 10:31:07;;;;;;;33.40;22.38;;;13.20;99.90;;;;;;5018588;28;20053;-81
2023/04/09 10:33:36;;;;;;;37.50;24.95;;;13.30;99.90;;;;;;5022110;28;20048;-81
2023/04/09 10:36:09;;;;;;;34.75;23.63;;;13.40;99.90;;;;;;5026587;28;20183;-81
2023/04/09 10:38:37;;;;;;;35.43;24.00;;;13.40;99.90;;;;;;5023836;28;20053;-82
2023/04/09 10:41:15;;;;;;;32.10;21.80;;;13.50;99.90;;;;;;5019262;28;20045;-81
2023/04/09 10:43:42;;;;;;;32.83;22.13;;;13.70;99.90;;;;;;5014580;28;20041;-81
2023/04/09 10:46:28;;;;;;;33.63;22.85;;;13.70;99.90;;;;;;5016247;28;20048;-81
2023/04/09 10:49:19;;;;;;;32.97;21.83;;;13.70;99.90;;;;;;5004160;28;20566;-81
2023/04/09 10:52:03;;;;;;;31.70;21.77;;;13.60;99.90;;;;;;5022202;28;20069;-81
2023/04/09 10:54:32;;;;;;;32.20;21.33;;;13.60;99.90;;;;;;5029532;28;20435;-81
2023/04/09 10:57:06;;;;;;;32.97;21.27;;;13.70;99.90;;;;;;5021124;28;20048;-81
2023/04/09 10:59:39;;;;;;;31.65;20.98;;;13.80;99.90;;;;;;5022344;28;20077;-81
2023/04/09 11:02:08;;;;;;;34.75;23.38;;;13.90;99.90;;;;;;5021358;28;20438;-81
2023/04/09 11:04:41;;;;;;;33.92;21.45;;;13.90;99.90;;;;;;5025774;28;20454;-81
2023/04/09 11:07:08;;;;;;;32.17;22.42;;;13.90;99.90;;;;;;5027643;28;20052;-81
2023/04/09 11:09:34;;;;;;;33.13;22.13;;;13.90;99.90;;;;;;5021084;28;20084;-81
2023/04/09 11:12:00;;;;;;;36.25;23.77;;;13.80;99.90;;;;;;5021543;28;20041;-82
2023/04/09 11:14:26;;;;;;;32.10;21.50;;;13.80;99.90;;;;;;5028446;28;20555;-81
2023/04/09 11:16:52;;;;;;;31.65;20.67;;;13.80;99.90;;;;;;5019164;28;20037;-82
2023/04/09 11:19:22;;;;;;;33.58;22.48;;;13.80;99.90;;;;;;5019863;28;20048;-82
2023/04/09 11:21:48;;;;;;;37.78;24.80;;;13.80;99.90;;;;;;5029706;28;20041;-82
2023/04/09 11:24:14;;;;;;;36.55;23.65;;;13.80;99.90;;;;;;5022407;28;20052;-80
2023/04/09 11:26:40;;;;;;;31.80;21.50;;;13.80;99.90;;;;;;5019720;28;20472;-82
2023/04/09 11:29:09;;;;;;;32.70;22.38;;;13.80;99.90;;;;;;5022533;28;20108;-81
2023/04/09 11:31:35;;;;;;;33.50;22.02;;;13.90;99.90;;;;;;5019914;28;20496;-82
2023/04/09 11:34:02;;;;;;;27.80;19.00;;;14.10;99.90;;;;;;5015203;28;20057;-81
2023/04/09 11:36:28;;;;;;;27.17;18.73;;;14.40;99.90;;;;;;5021787;28;20053;-82
2023/04/09 11:38:57;;;;;;;27.92;19.38;;;14.60;99.90;;;;;;5024813;28;20072;-82
2023/04/09 11:41:33;;;;;;;29.98;18.85;;;14.80;99.90;;;;;;5007075;28;20574;-81
2023/04/09 11:44:03;;;;;;;30.13;21.48;;;14.80;99.90;;;;;;5020837;28;20041;-82
2023/04/09 11:46:34;;;;;;;30.58;20.30;;;14.80;99.90;;;;;;5019225;28;20550;-82
2023/04/09 11:49:03;;;;;;;28.47;19.93;;;14.80;99.90;;;;;;5014086;28;20053;-83
2023/04/09 11:51:34;;;;;;;29.63;20.38;;;14.90;99.90;;;;;;5018066;28;20049;-82
2023/04/09 11:54:05;;;;;;;27.45;19.20;;;15.10;99.90;;;;;;5011382;28;20053;-82
2023/04/09 11:56:31;;;;;;;29.00;19.55;;;15.20;99.90;;;;;;5025188;28;20033;-82
2023/04/09 11:58:58;;;;;;;27.27;20.10;;;15.30;99.90;;;;;;5013146;28;20554;-83
2023/04/09 12:01:30;;;;;;;29.48;20.45;;;15.50;99.90;;;;;;5024739;28;20047;-82
2023/04/09 12:03:56;;;;;;;30.52;21.33;;;15.60;99.90;;;;;;5020297;28;20056;-82
2023/04/09 12:06:23;;;;;;;28.52;20.23;;;15.60;99.90;;;;;;5016886;28;20037;-81
2023/04/09 12:08:57;;;;;;;26.73;18.27;;;15.50;99.90;;;;;;5020744;28;20114;-81
2023/04/09 12:11:30;;;;;;;26.55;18.40;;;15.50;99.90;;;;;;5019456;28;20042;-81
2023/04/09 12:14:03;;;;;;;26.38;18.15;;;15.50;99.90;;;;;;5020034;28;20109;-81
2023/04/09 12:16:31;;;;;;;26.80;18.05;;;15.40;99.90;;;;;;5021687;28;20049;-81
2023/04/09 12:19:06;;;;;;;27.70;18.98;;;15.50;99.90;;;;;;5021638;28;20106;-81
2023/04/09 12:21:49;;;;;;;28.17;20.13;;;15.50;99.90;;;;;;5019155;28;20488;-81
2023/04/09 12:24:16;;;;;;;26.92;18.42;;;15.60;99.90;;;;;;5007711;28;20045;-81
2023/04/09 12:26:42;;;;;;;28.90;19.52;;;15.60;99.90;;;;;;5022124;28;20772;-81
2023/04/09 12:29:08;;;;;;;28.90;19.35;;;15.60;99.90;;;;;;5022404;28;20064;-81
2023/04/09 12:31:34;;;;;;;26.88;18.02;;;15.60;99.90;;;;;;5025192;28;20045;-81
2023/04/09 12:34:00;;;;;;;28.42;19.23;;;15.60;99.90;;;;;;5027274;28;20029;-81
2023/04/09 12:36:26;;;;;;;27.27;19.73;;;15.70;99.90;;;;;;5024187;28;20415;-82